CSN3107 ZYHB-ZSPD
Flight info
| Callsign | CSN3107 |
|---|---|
| Flight time | N/A |
| Altitude | 38100 |
| Route | DUK07D DUKIR W655 NIMEM/K0895S1130 W205 NULRA/K0893S1160 A588 UDETI W106 MAKNO W5 TAO/K0882S1190 DCT URBAD W172 LATUX W108 MATNU W115 PINOT |
| Aircraft | B77W/H-SDE1E2E3FGHIJ2J3J4J5M1RWXY/LB1D1 |
Departure
| Time | 2026-05-08 01:37 |
|---|---|
| Airport | Harbin Taiping International Airport (ZYHB) |
Arrival
| Time | N/A |
|---|---|
| Airport | Shanghai Pudong International Airport (ZSPD) |
| Time | Latitude | Longitude | Altitude | Speed | Heading |
|---|---|---|---|---|---|
| 2026-05-08 00:57 | 45.61517 | 126.23326 | 470 ft | 0 kts | 359° |
| 2026-05-08 01:27 | 45.61503 | 126.23326 | 466 ft | 2 kts | 359° |
| 2026-05-08 01:27 | 45.61487 | 126.23326 | 468 ft | 2 kts | 359° |
| 2026-05-08 01:28 | 45.61470 | 126.23326 | 469 ft | 2 kts | 359° |
| 2026-05-08 01:28 | 45.61453 | 126.23327 | 466 ft | 2 kts | 359° |
| 2026-05-08 01:28 | 45.61437 | 126.23327 | 469 ft | 2 kts | 359° |
| 2026-05-08 01:28 | 45.61420 | 126.23328 | 468 ft | 2 kts | 359° |
| 2026-05-08 01:29 | 45.61404 | 126.23325 | 467 ft | 2 kts | 19° |
| 2026-05-08 01:29 | 45.61389 | 126.23316 | 469 ft | 2 kts | 26° |
| 2026-05-08 01:29 | 45.61374 | 126.23305 | 469 ft | 2 kts | 31° |
| 2026-05-08 01:29 | 45.61360 | 126.23292 | 467 ft | 2 kts | 36° |
| 2026-05-08 01:30 | 45.61347 | 126.23278 | 467 ft | 2 kts | 39° |
| 2026-05-08 01:30 | 45.61334 | 126.23263 | 468 ft | 2 kts | 39° |
| 2026-05-08 01:30 | 45.61322 | 126.23248 | 467 ft | 2 kts | 40° |
| 2026-05-08 01:30 | 45.61309 | 126.23232 | 467 ft | 2 kts | 40° |
| 2026-05-08 01:31 | 45.61296 | 126.23218 | 467 ft | 2 kts | 40° |
| 2026-05-08 01:31 | 45.61286 | 126.23205 | 465 ft | 1 kts | 40° |
| 2026-05-08 01:31 | 45.61284 | 126.23202 | 465 ft | 0 kts | 40° |
| 2026-05-08 01:33 | 45.61289 | 126.23208 | 467 ft | 4 kts | 40° |
| 2026-05-08 01:33 | 45.61317 | 126.23242 | 468 ft | 6 kts | 40° |
| 2026-05-08 01:33 | 45.61347 | 126.23278 | 467 ft | 6 kts | 40° |
| 2026-05-08 01:34 | 45.61379 | 126.23318 | 469 ft | 7 kts | 48° |
| 2026-05-08 01:34 | 45.61382 | 126.23381 | 467 ft | 7 kts | 123° |
| 2026-05-08 01:34 | 45.61350 | 126.23437 | 469 ft | 7 kts | 128° |
| 2026-05-08 01:34 | 45.61314 | 126.23486 | 467 ft | 7 kts | 141° |
| 2026-05-08 01:35 | 45.61275 | 126.23531 | 470 ft | 2 kts | 133° |
| 2026-05-08 01:35 | 45.61264 | 126.23554 | 469 ft | 6 kts | 120° |
| 2026-05-08 01:36 | 45.61252 | 126.23616 | 469 ft | 7 kts | 92° |
| 2026-05-08 01:36 | 45.61257 | 126.23683 | 469 ft | 7 kts | 81° |
| 2026-05-08 01:36 | 45.61267 | 126.23748 | 470 ft | 7 kts | 69° |
| 2026-05-08 01:36 | 45.61297 | 126.23797 | 471 ft | 7 kts | 38° |
| 2026-05-08 01:37 | 45.61305 | 126.23806 | 467 ft | 1 kts | 39° |
| 2026-05-08 01:37 | 45.61453 | 126.23976 | 468 ft | 72 kts | 39° |
| 2026-05-08 01:37 | 45.62109 | 126.24740 | 464 ft | 173 kts | 38° |
| 2026-05-08 01:37 | 45.63204 | 126.26037 | 1094 ft | 208 kts | 39° |
| 2026-05-08 01:38 | 45.64322 | 126.27165 | 2990 ft | 200 kts | 22° |
| 2026-05-08 01:38 | 45.65781 | 126.27349 | 3720 ft | 230 kts | 344° |
| 2026-05-08 01:38 | 45.67140 | 126.26069 | 4386 ft | 247 kts | 309° |
| 2026-05-08 01:38 | 45.67893 | 126.23810 | 5117 ft | 258 kts | 290° |
| 2026-05-08 01:39 | 45.68376 | 126.21307 | 6001 ft | 264 kts | 287° |
| 2026-05-08 01:39 | 45.68847 | 126.18747 | 6982 ft | 267 kts | 288° |
| 2026-05-08 01:39 | 45.69337 | 126.16163 | 7897 ft | 270 kts | 288° |
| 2026-05-08 01:39 | 45.69721 | 126.13559 | 8682 ft | 276 kts | 273° |
| 2026-05-08 01:40 | 45.69477 | 126.10798 | 9385 ft | 284 kts | 263° |
| 2026-05-08 01:40 | 45.69104 | 126.07959 | 10167 ft | 287 kts | 258° |
| 2026-05-08 01:40 | 45.68153 | 126.05372 | 10614 ft | 311 kts | 229° |
| 2026-05-08 01:40 | 45.66279 | 126.03596 | 10810 ft | 341 kts | 199° |
| 2026-05-08 01:41 | 45.63892 | 126.03011 | 11016 ft | 363 kts | 185° |
| 2026-05-08 01:41 | 45.61285 | 126.02754 | 11431 ft | 383 kts | 184° |
| 2026-05-08 01:41 | 45.58593 | 126.02530 | 12163 ft | 392 kts | 183° |
| 2026-05-08 01:41 | 45.55846 | 126.02311 | 13023 ft | 399 kts | 183° |
| 2026-05-08 01:42 | 45.53053 | 126.02079 | 13908 ft | 404 kts | 184° |
| 2026-05-08 01:42 | 45.50222 | 126.01831 | 14724 ft | 409 kts | 184° |
| 2026-05-08 01:42 | 45.47364 | 126.01569 | 15546 ft | 414 kts | 184° |
| 2026-05-08 01:42 | 45.44505 | 126.01298 | 16348 ft | 420 kts | 184° |
| 2026-05-08 01:43 | 45.41568 | 126.01032 | 17138 ft | 425 kts | 182° |
| 2026-05-08 01:43 | 45.38559 | 126.00890 | 17933 ft | 431 kts | 181° |
| 2026-05-08 01:43 | 45.35581 | 126.00774 | 18657 ft | 436 kts | 181° |
| 2026-05-08 01:43 | 45.32533 | 126.00611 | 19359 ft | 440 kts | 182° |
| 2026-05-08 01:44 | 45.29459 | 126.00391 | 20065 ft | 444 kts | 182° |
| 2026-05-08 01:44 | 45.26357 | 126.00125 | 20752 ft | 449 kts | 183° |
| 2026-05-08 01:44 | 45.23221 | 125.99824 | 21420 ft | 453 kts | 183° |
| 2026-05-08 01:44 | 45.20056 | 125.99503 | 22074 ft | 458 kts | 184° |
| 2026-05-08 01:45 | 45.16861 | 125.99170 | 22717 ft | 462 kts | 184° |
| 2026-05-08 01:45 | 45.13633 | 125.98831 | 23352 ft | 467 kts | 183° |
| 2026-05-08 01:45 | 45.10373 | 125.98491 | 23903 ft | 471 kts | 183° |
| 2026-05-08 01:45 | 45.07091 | 125.98152 | 24450 ft | 474 kts | 183° |
| 2026-05-08 01:46 | 45.03786 | 125.97812 | 25005 ft | 477 kts | 184° |
| 2026-05-08 01:46 | 45.00468 | 125.97473 | 25539 ft | 480 kts | 184° |
| 2026-05-08 01:46 | 44.97121 | 125.97131 | 26048 ft | 483 kts | 184° |
| 2026-05-08 01:46 | 44.93753 | 125.96789 | 26525 ft | 487 kts | 184° |
| 2026-05-08 01:47 | 44.90360 | 125.96443 | 27012 ft | 490 kts | 184° |
| 2026-05-08 01:47 | 44.86986 | 125.96101 | 27474 ft | 493 kts | 184° |
| 2026-05-08 01:47 | 44.83549 | 125.95752 | 27933 ft | 497 kts | 184° |
| 2026-05-08 01:48 | 44.76605 | 125.95049 | 28787 ft | 503 kts | 184° |
| 2026-05-08 01:48 | 44.73109 | 125.94695 | 29184 ft | 506 kts | 183° |
| 2026-05-08 01:48 | 44.69584 | 125.94339 | 29558 ft | 509 kts | 184° |
| 2026-05-08 01:48 | 44.66045 | 125.93981 | 29955 ft | 510 kts | 184° |
| 2026-05-08 01:49 | 44.62499 | 125.93624 | 30391 ft | 509 kts | 184° |
| 2026-05-08 01:49 | 44.58969 | 125.93267 | 30826 ft | 508 kts | 184° |
| 2026-05-08 01:49 | 44.55444 | 125.92912 | 31234 ft | 508 kts | 184° |
| 2026-05-08 01:49 | 44.51920 | 125.92558 | 31616 ft | 508 kts | 184° |
| 2026-05-08 01:50 | 44.49590 | 125.92325 | 31859 ft | 508 kts | 184° |
| 2026-05-08 01:50 | 44.46060 | 125.91971 | 32227 ft | 508 kts | 185° |
| 2026-05-08 01:50 | 44.41389 | 125.91504 | 32726 ft | 507 kts | 185° |
| 2026-05-08 01:50 | 44.39061 | 125.91271 | 32961 ft | 508 kts | 185° |
| 2026-05-08 01:51 | 44.35487 | 125.90914 | 33316 ft | 508 kts | 185° |
| 2026-05-08 01:51 | 44.30814 | 125.90448 | 33754 ft | 508 kts | 185° |
| 2026-05-08 01:51 | 44.27290 | 125.90097 | 34098 ft | 508 kts | 185° |
| 2026-05-08 01:51 | 44.24947 | 125.89864 | 34305 ft | 507 kts | 185° |
| 2026-05-08 01:52 | 44.21430 | 125.89515 | 34608 ft | 506 kts | 186° |
| 2026-05-08 01:52 | 44.17921 | 125.89167 | 34919 ft | 505 kts | 186° |
| 2026-05-08 01:52 | 44.14423 | 125.88820 | 35207 ft | 504 kts | 186° |
| 2026-05-08 01:52 | 44.10933 | 125.88474 | 35490 ft | 503 kts | 186° |
| 2026-05-08 01:53 | 44.07435 | 125.88129 | 35769 ft | 502 kts | 186° |
| 2026-05-08 01:53 | 44.03950 | 125.87784 | 36032 ft | 502 kts | 186° |
| 2026-05-08 01:53 | 44.00464 | 125.87440 | 36305 ft | 501 kts | 186° |
| 2026-05-08 01:53 | 43.96998 | 125.87098 | 36641 ft | 498 kts | 186° |
| 2026-05-08 01:54 | 43.93544 | 125.86759 | 37091 ft | 493 kts | 186° |
| 2026-05-08 01:54 | 43.90123 | 125.86423 | 37388 ft | 492 kts | 186° |
| 2026-05-08 01:54 | 43.83250 | 125.85744 | 37539 ft | 498 kts | 187° |
| 2026-05-08 01:55 | 43.76517 | 125.83943 | 37763 ft | 495 kts | 200° |
| 2026-05-08 01:55 | 43.73271 | 125.82325 | 37932 ft | 493 kts | 206° |
| 2026-05-08 01:55 | 43.70186 | 125.80252 | 38033 ft | 492 kts | 210° |
| 2026-05-08 01:56 | 43.64111 | 125.75828 | 38113 ft | 495 kts | 211° |
| 2026-05-08 01:56 | 43.58013 | 125.71394 | 38119 ft | 495 kts | 210° |
| 2026-05-08 01:57 | 43.51912 | 125.67031 | 38115 ft | 493 kts | 210° |
| 2026-05-08 01:57 | 43.45823 | 125.62716 | 38118 ft | 492 kts | 210° |
| 2026-05-08 01:58 | 43.39769 | 125.58436 | 38127 ft | 492 kts | 210° |
| 2026-05-08 01:58 | 43.33667 | 125.54129 | 38131 ft | 492 kts | 210° |
| 2026-05-08 01:59 | 43.27566 | 125.49832 | 38125 ft | 493 kts | 210° |
| 2026-05-08 01:59 | 43.21471 | 125.45549 | 38130 ft | 492 kts | 211° |
| 2026-05-08 02:00 | 43.15368 | 125.41269 | 38130 ft | 492 kts | 211° |
| 2026-05-08 02:00 | 43.09312 | 125.37032 | 38129 ft | 491 kts | 211° |
| 2026-05-08 02:01 | 43.03217 | 125.32777 | 38141 ft | 491 kts | 211° |
| 2026-05-08 02:01 | 42.97127 | 125.28534 | 38136 ft | 491 kts | 211° |
| 2026-05-08 02:02 | 42.91027 | 125.24294 | 38136 ft | 492 kts | 211° |
| 2026-05-08 02:02 | 42.84924 | 125.20060 | 38136 ft | 491 kts | 211° |
| 2026-05-08 02:03 | 42.78833 | 125.15826 | 38150 ft | 491 kts | 211° |
| 2026-05-08 02:03 | 42.72763 | 125.11560 | 38146 ft | 491 kts | 211° |
| 2026-05-08 02:04 | 42.66734 | 125.07324 | 38148 ft | 490 kts | 212° |
| 2026-05-08 02:04 | 42.60671 | 125.03082 | 38139 ft | 490 kts | 211° |
| 2026-05-08 02:05 | 42.54602 | 124.98848 | 38139 ft | 490 kts | 212° |
| 2026-05-08 02:05 | 42.48524 | 124.94616 | 38158 ft | 490 kts | 212° |
| 2026-05-08 02:06 | 42.42486 | 124.90422 | 38137 ft | 490 kts | 212° |
| 2026-05-08 02:06 | 42.36405 | 124.86208 | 38156 ft | 490 kts | 212° |
| 2026-05-08 02:07 | 42.30326 | 124.82004 | 38154 ft | 490 kts | 212° |
| 2026-05-08 02:07 | 42.24253 | 124.77813 | 38153 ft | 490 kts | 212° |
| 2026-05-08 02:08 | 42.18169 | 124.73623 | 38157 ft | 491 kts | 212° |
| 2026-05-08 02:08 | 42.12088 | 124.69444 | 38156 ft | 491 kts | 212° |
| 2026-05-08 02:09 | 42.06001 | 124.65271 | 38158 ft | 491 kts | 212° |
| 2026-05-08 02:09 | 41.99938 | 124.61121 | 38166 ft | 491 kts | 212° |
| 2026-05-08 02:10 | 41.93904 | 124.56833 | 38165 ft | 489 kts | 214° |
| 2026-05-08 02:10 | 41.88009 | 124.52258 | 38148 ft | 488 kts | 215° |
| 2026-05-08 02:11 | 41.82129 | 124.47692 | 38155 ft | 489 kts | 215° |
| 2026-05-08 02:11 | 41.76215 | 124.43170 | 38153 ft | 489 kts | 214° |
| 2026-05-08 02:12 | 41.70299 | 124.38683 | 38161 ft | 489 kts | 215° |
| 2026-05-08 02:12 | 41.64373 | 124.34199 | 38161 ft | 489 kts | 214° |
| 2026-05-08 02:13 | 41.58452 | 124.29726 | 38171 ft | 489 kts | 215° |
| 2026-05-08 02:13 | 41.52524 | 124.25252 | 38169 ft | 489 kts | 215° |
| 2026-05-08 02:14 | 41.46637 | 124.20819 | 38163 ft | 489 kts | 215° |
| 2026-05-08 02:14 | 41.40712 | 124.16370 | 38166 ft | 488 kts | 215° |
| 2026-05-08 02:15 | 41.34753 | 124.12002 | 38177 ft | 489 kts | 214° |
| 2026-05-08 02:15 | 41.28759 | 124.07690 | 38166 ft | 489 kts | 214° |
| 2026-05-08 02:16 | 41.22770 | 124.03377 | 38172 ft | 489 kts | 214° |
| 2026-05-08 02:16 | 41.16794 | 123.99070 | 38177 ft | 489 kts | 214° |
| 2026-05-08 02:17 | 41.10824 | 123.94769 | 38166 ft | 488 kts | 214° |
| 2026-05-08 02:17 | 41.04853 | 123.90478 | 38159 ft | 488 kts | 214° |
| 2026-05-08 02:18 | 40.98892 | 123.86205 | 38170 ft | 487 kts | 214° |
| 2026-05-08 02:18 | 40.92926 | 123.81936 | 38163 ft | 487 kts | 214° |
| 2026-05-08 02:19 | 40.86960 | 123.77674 | 38180 ft | 487 kts | 214° |
| 2026-05-08 02:19 | 40.81039 | 123.73435 | 38161 ft | 486 kts | 215° |
| 2026-05-08 02:20 | 40.75140 | 123.69090 | 38171 ft | 485 kts | 216° |
| 2026-05-08 02:20 | 40.69255 | 123.64745 | 38170 ft | 484 kts | 216° |
| 2026-05-08 02:21 | 40.63373 | 123.60428 | 38166 ft | 484 kts | 216° |
| 2026-05-08 02:21 | 40.57483 | 123.56121 | 38167 ft | 483 kts | 216° |
| 2026-05-08 02:22 | 40.51602 | 123.51827 | 38167 ft | 484 kts | 216° |
| 2026-05-08 02:22 | 40.45715 | 123.47533 | 38175 ft | 484 kts | 216° |
| 2026-05-08 02:23 | 40.39874 | 123.43282 | 38168 ft | 484 kts | 216° |
| 2026-05-08 02:23 | 40.33962 | 123.38987 | 38167 ft | 484 kts | 216° |
| 2026-05-08 02:24 | 40.28066 | 123.34712 | 38174 ft | 484 kts | 216° |
| 2026-05-08 02:24 | 40.22171 | 123.30446 | 38184 ft | 484 kts | 216° |
| 2026-05-08 02:25 | 40.16264 | 123.26180 | 38180 ft | 484 kts | 216° |
| 2026-05-08 02:25 | 40.10354 | 123.21919 | 38185 ft | 484 kts | 216° |
| 2026-05-08 02:26 | 40.04509 | 123.17715 | 38176 ft | 484 kts | 216° |
| 2026-05-08 02:26 | 39.98619 | 123.13444 | 38178 ft | 483 kts | 217° |
| 2026-05-08 02:27 | 39.92752 | 123.09168 | 38179 ft | 483 kts | 217° |
| 2026-05-08 02:27 | 39.86888 | 123.04905 | 38181 ft | 483 kts | 217° |
| 2026-05-08 02:28 | 39.81015 | 123.00648 | 38183 ft | 482 kts | 217° |
| 2026-05-08 02:28 | 39.75152 | 122.96411 | 38183 ft | 482 kts | 217° |
| 2026-05-08 02:29 | 39.69295 | 122.92186 | 38192 ft | 481 kts | 217° |
| 2026-05-08 02:29 | 39.63444 | 122.87973 | 38191 ft | 481 kts | 217° |
| 2026-05-08 02:30 | 39.57627 | 122.83790 | 38183 ft | 481 kts | 217° |
| 2026-05-08 02:30 | 39.51774 | 122.79592 | 38191 ft | 480 kts | 217° |
| 2026-05-08 02:31 | 39.45931 | 122.75408 | 38188 ft | 479 kts | 217° |
| 2026-05-08 02:31 | 39.40095 | 122.71236 | 38197 ft | 479 kts | 217° |
| 2026-05-08 02:32 | 39.34262 | 122.67075 | 38205 ft | 479 kts | 217° |
| 2026-05-08 02:32 | 39.28433 | 122.62924 | 38204 ft | 478 kts | 217° |
| 2026-05-08 02:33 | 39.22719 | 122.58587 | 38192 ft | 473 kts | 220° |
| 2026-05-08 02:33 | 39.17188 | 122.54126 | 38201 ft | 471 kts | 220° |
| 2026-05-08 02:34 | 39.11626 | 122.49648 | 38191 ft | 470 kts | 220° |
| 2026-05-08 02:34 | 39.06072 | 122.45214 | 38197 ft | 469 kts | 220° |
| 2026-05-08 02:35 | 39.00528 | 122.40805 | 38207 ft | 468 kts | 220° |
| 2026-05-08 02:35 | 38.94990 | 122.36405 | 38212 ft | 468 kts | 220° |
| 2026-05-08 02:36 | 38.89481 | 122.32038 | 38212 ft | 467 kts | 220° |
| 2026-05-08 02:36 | 38.83952 | 122.27666 | 38207 ft | 466 kts | 220° |
| 2026-05-08 02:37 | 38.79374 | 122.24049 | 38204 ft | 464 kts | 220° |
| 2026-05-08 02:37 | 38.73879 | 122.19710 | 38211 ft | 461 kts | 222° |
| 2026-05-08 02:38 | 38.71418 | 122.17200 | 38222 ft | 444 kts | 235° |
| 2026-05-08 02:38 | 38.69517 | 122.14156 | 38224 ft | 433 kts | 244° |
| 2026-05-08 02:38 | 38.67104 | 122.07280 | 38229 ft | 418 kts | 260° |
| 2026-05-08 02:39 | 38.65577 | 122.00123 | 38222 ft | 420 kts | 260° |
| 2026-05-08 02:39 | 38.64026 | 121.92937 | 38214 ft | 419 kts | 260° |
| 2026-05-08 02:40 | 38.62444 | 121.85783 | 38217 ft | 417 kts | 259° |
| 2026-05-08 02:40 | 38.60849 | 121.78650 | 38217 ft | 416 kts | 259° |
| 2026-05-08 02:41 | 38.59245 | 121.71515 | 38225 ft | 417 kts | 259° |
| 2026-05-08 02:41 | 38.57637 | 121.64379 | 38224 ft | 417 kts | 259° |
| 2026-05-08 02:42 | 38.56036 | 121.57303 | 38226 ft | 416 kts | 259° |
| 2026-05-08 02:42 | 38.54423 | 121.50186 | 38228 ft | 416 kts | 259° |
| 2026-05-08 02:43 | 38.52807 | 121.43081 | 38228 ft | 416 kts | 259° |
| 2026-05-08 02:43 | 38.51186 | 121.35975 | 38233 ft | 417 kts | 259° |
| 2026-05-08 02:44 | 38.49563 | 121.28882 | 38234 ft | 416 kts | 259° |
| 2026-05-08 02:44 | 38.47943 | 121.21822 | 38234 ft | 416 kts | 259° |
| 2026-05-08 02:45 | 38.45954 | 121.14847 | 38237 ft | 423 kts | 252° |
| 2026-05-08 02:45 | 38.43126 | 121.08194 | 38237 ft | 430 kts | 246° |
| 2026-05-08 02:46 | 38.39914 | 121.01747 | 38231 ft | 431 kts | 246° |
| 2026-05-08 02:46 | 38.36700 | 120.95305 | 38254 ft | 430 kts | 246° |
| 2026-05-08 02:47 | 38.33499 | 120.88844 | 38231 ft | 431 kts | 246° |
| 2026-05-08 02:47 | 38.30301 | 120.82387 | 38252 ft | 431 kts | 246° |
| 2026-05-08 02:48 | 38.27025 | 120.76002 | 38238 ft | 437 kts | 239° |
| 2026-05-08 02:48 | 38.22543 | 120.70592 | 38247 ft | 455 kts | 226° |